createdAt,value
2019-05-07T00:00:19.585Z,2.40
2019-05-07T00:02:47.946Z,2.40
2019-05-07T00:05:16.370Z,2.50
2019-05-07T00:07:44.740Z,2.50
2019-05-07T00:10:13.096Z,2.50
2019-05-07T00:12:43.119Z,2.50
2019-05-07T00:15:12.588Z,2.60
2019-05-07T00:17:42.868Z,2.60
2019-05-07T00:20:12.790Z,2.60
2019-05-07T00:22:41.938Z,2.60
2019-05-07T00:25:12.344Z,2.60
2019-05-07T00:27:42.577Z,2.60
2019-05-07T00:30:12.549Z,2.60
2019-05-07T00:32:42.297Z,2.60
2019-05-07T00:35:22.566Z,2.60
2019-05-07T00:38:02.561Z,2.60
2019-05-07T00:40:38.504Z,2.60
2019-05-07T00:43:12.031Z,2.60
2019-05-07T00:45:57.229Z,2.60
2019-05-07T00:48:25.748Z,2.60
2019-05-07T00:50:55.728Z,2.60
2019-05-07T00:53:24.097Z,2.60
2019-05-07T00:55:52.625Z,2.60
2019-05-07T00:58:26.278Z,2.50
2019-05-07T01:00:53.046Z,2.50
2019-05-07T01:03:22.206Z,2.50
2019-05-07T01:05:52.677Z,2.50
2019-05-07T01:08:22.544Z,2.50
2019-05-07T01:10:52.905Z,2.50
2019-05-07T01:13:23.161Z,2.50
2019-05-07T01:15:52.997Z,2.50
2019-05-07T01:18:23.036Z,2.50
2019-05-07T01:20:53.055Z,2.50
2019-05-07T01:23:22.919Z,2.50
2019-05-07T01:25:52.560Z,2.50
2019-05-07T01:28:22.283Z,2.50
2019-05-07T01:30:52.816Z,2.50
2019-05-07T01:33:25.304Z,2.50
2019-05-07T01:35:57.979Z,2.50
2019-05-07T01:38:26.798Z,2.40
2019-05-07T01:40:55.160Z,2.40
2019-05-07T01:43:23.528Z,2.40
2019-05-07T01:45:52.973Z,2.40
2019-05-07T01:48:23.024Z,2.40
2019-05-07T01:50:52.514Z,2.40
2019-05-07T01:53:22.728Z,2.40
2019-05-07T01:55:52.352Z,2.40
2019-05-07T01:58:22.133Z,2.30
2019-05-07T02:00:53.051Z,2.30
2019-05-07T02:03:25.104Z,2.30
2019-05-07T02:06:02.205Z,2.30
2019-05-07T02:08:42.314Z,2.30
2019-05-07T02:11:24.807Z,2.40
2019-05-07T02:13:53.220Z,2.30
2019-05-07T02:16:21.896Z,2.30
2019-05-07T02:18:52.427Z,2.30
2019-05-07T02:21:22.095Z,2.30
2019-05-07T02:23:52.254Z,2.30
2019-05-07T02:26:22.385Z,2.30
2019-05-07T02:28:51.889Z,2.30
2019-05-07T02:31:22.992Z,2.20
2019-05-07T02:33:53.816Z,2.20
2019-05-07T02:36:23.557Z,2.20
2019-05-07T02:38:54.987Z,2.20
2019-05-07T02:41:33.107Z,2.10
2019-05-07T02:44:04.105Z,2.20
2019-05-07T02:46:36.423Z,2.10
2019-05-07T02:49:06.848Z,2.10
2019-05-07T02:51:53.345Z,2.10
2019-05-07T02:54:24.116Z,2.00
2019-05-07T02:56:53.440Z,2.00
2019-05-07T02:59:23.378Z,1.90
2019-05-07T03:01:53.810Z,1.90
2019-05-07T03:04:24.644Z,1.90
2019-05-07T03:06:54.347Z,1.80
2019-05-07T03:09:22.762Z,1.80
2019-05-07T03:11:52.975Z,1.80
2019-05-07T03:14:23.443Z,1.80
2019-05-07T03:16:53.669Z,1.80
2019-05-07T03:19:24.277Z,1.80
2019-05-07T03:21:54.688Z,1.80
2019-05-07T03:24:27.951Z,1.80
2019-05-07T03:26:55.616Z,1.80
2019-05-07T03:29:25.457Z,1.70
2019-05-07T03:32:06.170Z,1.70
2019-05-07T03:34:46.570Z,1.70
2019-05-07T03:37:13.866Z,1.70
2019-05-07T03:39:43.233Z,1.70
2019-05-07T03:42:13.064Z,1.70
2019-05-07T03:44:44.583Z,1.70
2019-05-07T03:47:24.228Z,1.70
2019-05-07T03:49:53.575Z,1.70
2019-05-07T03:52:24.488Z,1.80
2019-05-07T03:54:54.100Z,1.80
2019-05-07T03:57:23.717Z,1.90
2019-05-07T03:59:53.324Z,1.90
2019-05-07T04:02:23.905Z,2.00
2019-05-07T04:04:52.888Z,2.00
2019-05-07T04:07:23.273Z,2.10
2019-05-07T04:09:53.483Z,2.20
2019-05-07T04:12:23.808Z,2.30
2019-05-07T04:14:53.389Z,2.40
2019-05-07T04:17:25.832Z,2.40
2019-05-07T04:19:53.220Z,2.50
2019-05-07T04:22:26.503Z,2.60
2019-05-07T04:25:04.321Z,2.70
2019-05-07T04:27:33.790Z,2.80
2019-05-07T04:30:03.754Z,2.80
2019-05-07T04:32:33.783Z,2.90
2019-05-07T04:35:19.986Z,3.00
2019-05-07T04:37:48.374Z,3.10
2019-05-07T04:40:16.737Z,3.20
2019-05-07T04:42:45.106Z,3.40
2019-05-07T04:45:13.795Z,3.50
2019-05-07T04:47:46.733Z,3.60
2019-05-07T04:50:14.253Z,3.80
2019-05-07T04:52:43.627Z,4.10
2019-05-07T04:55:13.877Z,4.40
2019-05-07T04:57:43.754Z,4.80
2019-05-07T05:00:13.420Z,5.60
2019-05-07T05:02:43.677Z,6.70
2019-05-07T05:05:12.840Z,7.80
2019-05-07T05:07:43.121Z,9.20
2019-05-07T05:10:13.411Z,10.90
2019-05-07T05:12:42.855Z,12.80
2019-05-07T05:15:12.635Z,14.60
2019-05-07T05:17:50.098Z,16.20
2019-05-07T05:20:13.119Z,17.20
2019-05-07T05:22:53.195Z,17.60
2019-05-07T05:25:23.404Z,17.30
2019-05-07T05:27:52.427Z,17.70
2019-05-07T05:30:22.564Z,18.70
2019-05-07T05:32:52.028Z,19.50
2019-05-07T05:35:22.202Z,20.20
2019-05-07T05:37:52.070Z,20.70
2019-05-07T05:40:22.554Z,20.60
2019-05-07T05:42:58.200Z,20.00
2019-05-07T05:45:37.103Z,19.00
2019-05-07T05:48:08.485Z,17.80
2019-05-07T05:50:54.076Z,16.50
2019-05-07T05:53:27.040Z,15.40
2019-05-07T05:55:56.481Z,14.40
2019-05-07T05:58:32.571Z,13.60
2019-05-07T06:01:05.483Z,12.90
2019-05-07T06:03:52.066Z,12.20
2019-05-07T06:06:22.199Z,11.60
2019-05-07T06:08:52.578Z,11.00
2019-05-07T06:11:28.622Z,10.60
2019-05-07T06:13:58.623Z,10.20
2019-05-07T06:16:32.880Z,9.90
2019-05-07T06:19:03.083Z,9.80
2019-05-07T06:21:49.551Z,9.50
2019-05-07T06:24:22.741Z,9.40
2019-05-07T06:26:52.237Z,9.20
2019-05-07T06:29:23.005Z,9.20
2019-05-07T06:31:52.839Z,9.30
2019-05-07T06:34:22.001Z,9.30
2019-05-07T06:36:52.603Z,9.40
2019-05-07T06:39:22.246Z,9.50
2019-05-07T06:42:08.777Z,9.50
2019-05-07T06:44:37.149Z,9.40
2019-05-07T06:47:05.502Z,9.40
2019-05-07T06:49:33.867Z,9.40
2019-05-07T06:52:03.016Z,9.50
2019-05-07T06:54:32.114Z,9.50
2019-05-07T06:57:01.973Z,9.70
2019-05-07T06:59:35.536Z,9.70
2019-05-07T07:02:23.691Z,9.70
2019-05-07T07:04:56.905Z,9.70
2019-05-07T07:07:32.288Z,9.80
2019-05-07T07:10:04.306Z,10.10
2019-05-07T07:12:33.446Z,10.30
2019-05-07T07:15:02.713Z,10.50
2019-05-07T07:17:32.610Z,10.70
2019-05-07T07:20:02.105Z,10.80
2019-05-07T07:22:31.908Z,11.00
2019-05-07T07:25:02.549Z,11.20
2019-05-07T07:27:32.219Z,11.20
2019-05-07T07:30:02.469Z,11.20
2019-05-07T07:32:32.540Z,11.10
2019-05-07T07:35:02.379Z,11.10
2019-05-07T07:37:35.412Z,11.10
2019-05-07T07:40:08.557Z,11.40
2019-05-07T07:42:36.912Z,11.70
2019-05-07T07:45:18.778Z,11.70
2019-05-07T07:47:47.128Z,11.70
2019-05-07T07:50:16.345Z,11.50
2019-05-07T07:52:44.697Z,11.50
2019-05-07T07:55:14.287Z,11.50
2019-05-07T07:57:47.023Z,11.50
2019-05-07T08:00:30.139Z,11.40
2019-05-07T08:03:02.278Z,11.70
2019-05-07T08:05:32.558Z,12.00
2019-05-07T08:08:02.280Z,12.30
2019-05-07T08:10:32.599Z,12.60
2019-05-07T08:13:02.028Z,12.90
2019-05-07T08:15:32.854Z,13.10
2019-05-07T08:18:02.608Z,13.20
2019-05-07T08:20:32.692Z,13.10
2019-05-07T08:23:02.732Z,13.20
2019-05-07T08:25:48.646Z,13.20
2019-05-07T08:28:18.136Z,13.00
2019-05-07T08:30:48.140Z,13.00
2019-05-07T08:33:27.221Z,13.00
2019-05-07T08:35:57.218Z,13.20
2019-05-07T08:38:25.588Z,13.50
2019-05-07T08:40:53.940Z,13.70
2019-05-07T08:43:22.375Z,13.90
2019-05-07T08:45:52.609Z,13.90
2019-05-07T08:48:23.116Z,14.00
2019-05-07T08:50:52.534Z,14.00
2019-05-07T08:53:22.487Z,14.20
2019-05-07T08:55:52.639Z,14.30
2019-05-07T08:58:22.389Z,14.40
2019-05-07T09:00:52.354Z,14.40
2019-05-07T09:03:38.875Z,14.40
2019-05-07T09:06:07.174Z,14.50
2019-05-07T09:08:35.524Z,14.50
2019-05-07T09:11:03.883Z,14.90
2019-05-07T09:13:33.301Z,15.30
2019-05-07T09:16:02.420Z,15.80
2019-05-07T09:18:32.209Z,16.10
2019-05-07T09:21:02.200Z,16.60
2019-05-07T09:23:31.963Z,17.10
2019-05-07T09:26:02.613Z,17.50
2019-05-07T09:28:32.665Z,17.60
2019-05-07T09:31:02.814Z,17.30
2019-05-07T09:33:32.814Z,16.70
2019-05-07T09:36:02.290Z,16.00
2019-05-07T09:38:32.615Z,15.40
2019-05-07T09:41:02.419Z,14.80
2019-05-07T09:43:32.430Z,14.30
2019-05-07T09:46:02.603Z,13.90
2019-05-07T09:48:30.783Z,13.60
2019-05-07T09:50:59.157Z,13.50
2019-05-07T09:53:27.522Z,13.50
2019-05-07T09:55:57.513Z,13.60
2019-05-07T09:58:35.737Z,13.70
2019-05-07T10:00:57.510Z,13.60
2019-05-07T10:03:25.863Z,13.70
2019-05-07T10:05:54.231Z,13.90
2019-05-07T10:08:22.580Z,14.20
2019-05-07T10:10:53.151Z,14.60
2019-05-07T10:13:22.627Z,14.90
2019-05-07T10:15:52.615Z,14.90
2019-05-07T10:18:22.821Z,14.70
2019-05-07T10:20:52.179Z,14.30
2019-05-07T10:23:22.786Z,13.90
2019-05-07T10:25:50.618Z,13.50
2019-05-07T10:28:18.992Z,13.20
2019-05-07T10:30:47.346Z,12.90
2019-05-07T10:33:15.703Z,12.60
2019-05-07T10:35:44.068Z,12.50
2019-05-07T10:38:12.556Z,12.50
2019-05-07T10:40:41.000Z,12.70
2019-05-07T10:43:09.359Z,13.00
2019-05-07T10:45:45.087Z,13.40
2019-05-07T10:48:15.125Z,13.70
2019-05-07T10:51:02.735Z,13.80
2019-05-07T10:53:32.008Z,13.80
2019-05-07T10:56:02.522Z,13.70
2019-05-07T10:58:32.025Z,13.60
2019-05-07T11:01:02.694Z,13.30
2019-05-07T11:03:32.401Z,12.90
2019-05-07T11:06:01.318Z,12.50
2019-05-07T11:08:29.672Z,12.10
2019-05-07T11:10:58.044Z,12.00
2019-05-07T11:13:26.579Z,12.10
2019-05-07T11:16:05.823Z,12.40
2019-05-07T11:18:35.831Z,12.60
2019-05-07T11:21:04.180Z,12.80
2019-05-07T11:23:32.819Z,13.20
2019-05-07T11:26:02.520Z,13.40
2019-05-07T11:28:32.337Z,13.50
2019-05-07T11:31:02.127Z,13.30
2019-05-07T11:33:32.597Z,13.10
2019-05-07T11:36:02.117Z,12.90
2019-05-07T11:38:33.177Z,12.80
2019-05-07T11:41:02.307Z,12.70
2019-05-07T11:43:32.710Z,12.70
2019-05-07T11:46:04.434Z,12.70
2019-05-07T11:48:36.285Z,12.80
2019-05-07T11:51:05.832Z,12.70
2019-05-07T11:53:35.839Z,12.80
2019-05-07T11:56:04.217Z,12.80
2019-05-07T11:58:32.772Z,12.80
2019-05-07T12:01:12.462Z,12.80
2019-05-07T12:03:42.900Z,12.70
2019-05-07T12:06:12.463Z,12.50
2019-05-07T12:08:48.025Z,12.40
2019-05-07T12:11:11.920Z,12.40
2019-05-07T12:13:42.568Z,12.40
2019-05-07T12:16:13.931Z,12.50
2019-05-07T12:18:40.524Z,12.50
2019-05-07T12:21:18.326Z,12.60
2019-05-07T12:23:38.892Z,12.60
2019-05-07T12:26:07.259Z,12.60
2019-05-07T12:28:35.617Z,12.70
2019-05-07T12:31:12.186Z,12.80
2019-05-07T12:33:42.765Z,12.80
2019-05-07T12:36:13.017Z,12.90
2019-05-07T12:38:41.696Z,12.90
2019-05-07T12:41:28.718Z,12.90
2019-05-07T12:43:58.104Z,12.90
2019-05-07T12:46:26.703Z,12.90
2019-05-07T12:48:55.077Z,13.00
2019-05-07T12:51:33.915Z,13.10
2019-05-07T12:54:02.926Z,13.10
2019-05-07T12:56:32.054Z,13.10
2019-05-07T12:59:02.189Z,13.00
2019-05-07T13:01:32.928Z,12.80
2019-05-07T13:04:19.323Z,12.80
2019-05-07T13:06:49.339Z,12.90
2019-05-07T13:09:17.691Z,13.00
2019-05-07T13:11:46.057Z,13.20
2019-05-07T13:14:14.412Z,13.30
2019-05-07T13:16:42.780Z,13.30
2019-05-07T13:19:13.086Z,13.40
2019-05-07T13:21:47.431Z,13.50
2019-05-07T13:24:11.764Z,13.50
2019-05-07T13:26:42.743Z,13.60
2019-05-07T13:29:12.808Z,13.60
2019-05-07T13:31:42.015Z,13.70
2019-05-07T13:34:12.138Z,13.70
2019-05-07T13:36:42.247Z,13.60
2019-05-07T13:39:12.259Z,13.70
2019-05-07T13:41:42.260Z,13.70
2019-05-07T13:44:15.271Z,13.70
2019-05-07T13:46:44.957Z,13.70
2019-05-07T13:49:13.508Z,13.70
2019-05-07T13:51:41.891Z,13.80
2019-05-07T13:54:12.694Z,13.80
2019-05-07T13:56:41.951Z,13.80
2019-05-07T13:59:10.238Z,13.80
2019-05-07T14:01:43.164Z,13.80
2019-05-07T14:04:12.894Z,13.80
2019-05-07T14:06:42.937Z,13.70
2019-05-07T14:09:17.219Z,13.60
2019-05-07T14:11:45.567Z,13.60
2019-05-07T14:14:13.936Z,13.60
2019-05-07T14:16:45.115Z,13.50
2019-05-07T14:19:12.988Z,13.60
2019-05-07T14:21:42.164Z,13.60
2019-05-07T14:24:12.444Z,13.70
2019-05-07T14:26:42.242Z,13.80
2019-05-07T14:29:10.866Z,13.90
2019-05-07T14:31:39.193Z,14.00
2019-05-07T14:34:09.190Z,14.00
2019-05-07T14:36:44.771Z,14.00
2019-05-07T14:39:13.129Z,14.00
2019-05-07T14:41:42.757Z,14.10
2019-05-07T14:44:12.789Z,14.10
2019-05-07T14:46:50.403Z,14.30
2019-05-07T14:49:12.110Z,14.40
2019-05-07T14:51:40.695Z,14.60
2019-05-07T14:54:09.000Z,14.60
2019-05-07T14:56:37.361Z,14.60
2019-05-07T14:59:05.736Z,14.60
2019-05-07T15:01:34.162Z,14.50
2019-05-07T15:04:02.551Z,14.50
2019-05-07T15:06:32.520Z,14.60
2019-05-07T15:09:01.079Z,14.60
2019-05-07T15:11:29.357Z,14.70
2019-05-07T15:13:57.723Z,14.70
2019-05-07T15:16:26.079Z,14.70
2019-05-07T15:18:56.000Z,14.60
2019-05-07T15:21:24.377Z,14.50
2019-05-07T15:23:53.457Z,14.40
2019-05-07T15:26:22.098Z,14.40
2019-05-07T15:28:52.217Z,14.50
2019-05-07T15:31:22.628Z,14.70
2019-05-07T15:33:52.310Z,14.80
2019-05-07T15:36:20.759Z,14.80
2019-05-07T15:38:49.052Z,14.70
2019-05-07T15:41:17.412Z,14.80
2019-05-07T15:43:46.330Z,14.90
2019-05-07T15:46:14.829Z,14.80
2019-05-07T15:48:43.180Z,14.70
2019-05-07T15:51:11.879Z,14.50
2019-05-07T15:53:52.218Z,14.40
2019-05-07T15:56:21.863Z,14.30
2019-05-07T15:58:51.740Z,14.20
2019-05-07T16:01:22.024Z,14.10
2019-05-07T16:03:54.414Z,14.00
2019-05-07T16:06:22.025Z,13.80
2019-05-07T16:08:51.921Z,13.60
2019-05-07T16:11:20.291Z,13.50
2019-05-07T16:14:05.301Z,13.30
2019-05-07T16:16:35.563Z,13.10
2019-05-07T16:19:06.391Z,12.80
2019-05-07T16:21:34.743Z,12.60
2019-05-07T16:24:04.117Z,12.40
2019-05-07T16:26:32.821Z,12.30
2019-05-07T16:29:04.369Z,12.20
2019-05-07T16:31:33.257Z,12.10
2019-05-07T16:34:02.910Z,12.00
2019-05-07T16:36:32.941Z,11.90
2019-05-07T16:39:03.347Z,11.80
2019-05-07T16:41:31.848Z,11.70
2019-05-07T16:44:02.706Z,11.70
2019-05-07T16:46:30.508Z,11.60
2019-05-07T16:48:58.862Z,11.70
2019-05-07T16:51:27.235Z,11.70
2019-05-07T16:53:55.588Z,11.80
2019-05-07T16:56:23.941Z,11.80
2019-05-07T16:59:02.936Z,11.80
2019-05-07T17:01:32.360Z,11.80
2019-05-07T17:04:02.769Z,11.80
2019-05-07T17:06:32.124Z,11.70
2019-05-07T17:09:13.380Z,11.60
2019-05-07T17:11:43.457Z,11.50
2019-05-07T17:14:12.966Z,11.40
2019-05-07T17:16:41.408Z,11.30
2019-05-07T17:19:11.840Z,11.20
2019-05-07T17:21:40.425Z,11.10
2019-05-07T17:24:08.778Z,11.00
2019-05-07T17:26:37.149Z,11.00
2019-05-07T17:29:05.553Z,10.90
2019-05-07T17:31:33.954Z,10.80
2019-05-07T17:34:02.381Z,10.70
2019-05-07T17:36:32.840Z,10.60
2019-05-07T17:39:02.562Z,10.50
2019-05-07T17:41:32.235Z,10.50
2019-05-07T17:44:02.733Z,10.50
2019-05-07T17:46:32.429Z,10.50
2019-05-07T17:49:02.513Z,10.50
2019-05-07T17:51:35.543Z,10.50
2019-05-07T17:54:03.897Z,10.50
2019-05-07T17:56:32.256Z,10.50
2019-05-07T17:59:02.692Z,10.50
2019-05-07T18:01:32.794Z,10.40
2019-05-07T18:04:02.960Z,10.30
2019-05-07T18:06:32.099Z,10.20
2019-05-07T18:09:02.761Z,10.10
2019-05-07T18:11:32.441Z,10.00
2019-05-07T18:14:02.600Z,10.00
2019-05-07T18:16:38.251Z,9.80
2019-05-07T18:19:06.632Z,9.70
2019-05-07T18:21:35.017Z,9.60
2019-05-07T18:24:13.332Z,9.60
2019-05-07T18:26:33.924Z,9.50
2019-05-07T18:29:02.534Z,9.40
2019-05-07T18:31:48.838Z,9.20
2019-05-07T18:34:17.268Z,9.10
2019-05-07T18:36:45.621Z,8.80
2019-05-07T18:39:14.002Z,8.60
2019-05-07T18:41:42.366Z,8.50
2019-05-07T18:44:13.525Z,8.30
2019-05-07T18:46:40.728Z,8.10
2019-05-07T18:49:09.075Z,8.00
2019-05-07T18:51:37.368Z,7.80
2019-05-07T18:54:05.720Z,7.70
2019-05-07T18:56:34.147Z,7.60
2019-05-07T18:59:02.509Z,7.50
2019-05-07T19:01:32.768Z,7.40
2019-05-07T19:04:02.052Z,7.30
2019-05-07T19:06:31.875Z,7.30
2019-05-07T19:09:00.876Z,7.20
2019-05-07T19:11:29.304Z,7.10
2019-05-07T19:13:57.664Z,7.00
2019-05-07T19:16:26.105Z,7.00
2019-05-07T19:18:54.471Z,7.00
2019-05-07T19:21:22.819Z,6.90
2019-05-07T19:23:52.955Z,6.90
2019-05-07T19:26:21.280Z,6.80
2019-05-07T19:28:49.640Z,6.80
2019-05-07T19:31:18.005Z,6.70
2019-05-07T19:33:46.356Z,6.70
2019-05-07T19:36:14.764Z,6.60
2019-05-07T19:38:43.108Z,6.50
2019-05-07T19:41:12.281Z,6.40
2019-05-07T19:43:41.917Z,6.40
2019-05-07T19:46:12.310Z,6.30
2019-05-07T19:48:40.402Z,6.20
2019-05-07T19:51:08.761Z,6.20
2019-05-07T19:53:37.101Z,6.10
2019-05-07T19:56:19.068Z,6.00
2019-05-07T19:58:47.428Z,6.00
2019-05-07T20:01:17.445Z,5.90
2019-05-07T20:03:45.796Z,5.90
2019-05-07T20:06:14.157Z,5.80
2019-05-07T20:08:43.680Z,5.80
2019-05-07T20:11:16.847Z,5.70
2019-05-07T20:13:45.207Z,5.70
2019-05-07T20:16:20.277Z,5.70
2019-05-07T20:18:48.636Z,5.60
2019-05-07T20:21:16.988Z,5.60
2019-05-07T20:23:46.515Z,5.60
2019-05-07T20:26:14.865Z,5.50
2019-05-07T20:28:44.492Z,5.50
2019-05-07T20:31:14.132Z,5.50
2019-05-07T20:33:42.548Z,5.40
2019-05-07T20:36:11.260Z,5.40
2019-05-07T20:38:39.673Z,5.30
2019-05-07T20:41:08.020Z,5.30
2019-05-07T20:43:36.405Z,5.30
2019-05-07T20:46:04.752Z,5.20
2019-05-07T20:48:33.108Z,5.20
2019-05-07T20:51:01.473Z,5.20
2019-05-07T20:53:47.627Z,5.10
2019-05-07T20:56:17.628Z,5.10
2019-05-07T20:58:45.987Z,5.00
2019-05-07T21:01:14.328Z,5.00
2019-05-07T21:03:42.934Z,5.00
2019-05-07T21:06:11.384Z,4.90
2019-05-07T21:08:39.750Z,4.90
2019-05-07T21:11:08.119Z,4.90
2019-05-07T21:13:36.472Z,4.90
2019-05-07T21:16:04.836Z,4.80
2019-05-07T21:18:33.191Z,4.80
2019-05-07T21:21:02.176Z,4.80
2019-05-07T21:23:32.601Z,4.80
2019-05-07T21:26:02.375Z,4.70
2019-05-07T21:28:32.333Z,4.70
2019-05-07T21:31:02.811Z,4.70
2019-05-07T21:33:32.206Z,4.60
2019-05-07T21:36:02.680Z,4.60
2019-05-07T21:38:32.768Z,4.50
2019-05-07T21:41:00.685Z,4.50
2019-05-07T21:43:29.051Z,4.40
2019-05-07T21:45:57.424Z,4.40
2019-05-07T21:48:25.780Z,4.40
2019-05-07T21:50:54.803Z,4.30
2019-05-07T21:53:33.814Z,4.30
2019-05-07T21:56:22.675Z,4.30
2019-05-07T21:58:54.037Z,4.20
2019-05-07T22:01:23.760Z,4.20
2019-05-07T22:03:53.501Z,4.10
2019-05-07T22:06:22.740Z,4.10
2019-05-07T22:08:54.392Z,4.10
2019-05-07T22:11:22.976Z,4.10
2019-05-07T22:13:54.415Z,4.00
2019-05-07T22:16:22.193Z,4.00
2019-05-07T22:18:52.209Z,4.00
2019-05-07T22:21:20.695Z,4.00
2019-05-07T22:23:49.044Z,3.90
2019-05-07T22:26:22.825Z,3.90
2019-05-07T22:28:47.416Z,3.90
2019-05-07T22:31:29.720Z,3.90
2019-05-07T22:34:14.463Z,3.80
2019-05-07T22:36:43.209Z,3.80
2019-05-07T22:39:12.589Z,3.70
2019-05-07T22:41:42.493Z,3.70
2019-05-07T22:44:11.989Z,3.70
2019-05-07T22:46:42.169Z,3.70
2019-05-07T22:49:12.260Z,3.70
2019-05-07T22:51:40.497Z,3.60
2019-05-07T22:54:08.859Z,3.70
2019-05-07T22:56:57.201Z,3.60
2019-05-07T22:59:25.561Z,3.60
2019-05-07T23:01:54.972Z,3.60
2019-05-07T23:04:23.581Z,3.60
2019-05-07T23:06:52.771Z,3.60
2019-05-07T23:09:22.359Z,3.60
2019-05-07T23:11:52.664Z,3.60
2019-05-07T23:14:22.552Z,3.60
2019-05-07T23:16:55.042Z,3.60
2019-05-07T23:19:22.040Z,3.60
2019-05-07T23:21:52.130Z,3.60
2019-05-07T23:24:22.657Z,3.60
2019-05-07T23:26:53.344Z,3.60
2019-05-07T23:29:22.423Z,3.60
2019-05-07T23:31:52.833Z,3.60
2019-05-07T23:34:22.016Z,3.60
2019-05-07T23:36:52.985Z,3.60
2019-05-07T23:39:22.317Z,3.50
2019-05-07T23:41:52.652Z,3.50
2019-05-07T23:44:22.865Z,3.50
2019-05-07T23:46:52.058Z,3.50
2019-05-07T23:49:22.990Z,3.50
2019-05-07T23:51:52.808Z,3.50
2019-05-07T23:54:22.709Z,3.50
2019-05-07T23:57:04.456Z,3.50
2019-05-07T23:59:22.144Z,3.50
